Time;durP1;ratioP1;P1;durP2;ratioP2;P2;SDS_P1;SDS_P2;PMS_P1;PMS_P2;Temp;Humidity;BMP_temperature;BMP_pressure;BME280_temperature;BME280_humidity;BME280_pressure;Samples;Min_cycle;Max_cycle;Signal;HPM_P1;HPM_P2
2022/10/14 00:01:21;;;;;;;24.70;22.00;;;15.00;91.60;;;;;;5022412;28;20046;-75
2022/10/14 00:03:47;;;;;;;26.20;22.88;;;15.00;91.60;;;;;;5023486;28;20037;-74
2022/10/14 00:06:15;;;;;;;26.10;21.80;;;14.90;91.70;;;;;;5025396;28;20545;-74
2022/10/14 00:08:42;;;;;;;26.13;21.52;;;15.00;91.60;;;;;;5021661;28;20049;-74
2022/10/14 00:11:18;;;;;;;26.70;22.65;;;14.90;91.70;;;;;;5007307;28;20049;-74
2022/10/14 00:13:44;;;;;;;26.35;23.23;;;15.00;91.70;;;;;;5024099;28;20132;-74
2022/10/14 00:16:20;;;;;;;27.25;23.67;;;14.90;91.70;;;;;;5024829;28;20115;-74
2022/10/14 00:18:47;;;;;;;27.30;22.35;;;14.90;91.70;;;;;;5006949;28;20033;-74
2022/10/14 00:21:13;;;;;;;28.60;24.45;;;15.00;91.70;;;;;;5024782;28;20072;-75
2022/10/14 00:23:38;;;;;;;29.33;24.38;;;15.00;91.60;;;;;;5023443;28;20026;-74
2022/10/14 00:26:04;;;;;;;27.30;23.27;;;15.00;91.60;;;;;;5024329;28;20495;-74
2022/10/14 00:28:30;;;;;;;28.30;24.10;;;15.00;91.70;;;;;;5006258;28;20084;-73
2022/10/14 00:31:01;;;;;;;28.02;24.23;;;15.00;91.60;;;;;;5002410;28;20030;-74
2022/10/14 00:33:27;;;;;;;30.02;25.17;;;15.00;91.70;;;;;;5025275;28;20087;-74
2022/10/14 00:35:58;;;;;;;30.58;24.05;;;15.00;91.70;;;;;;5024003;28;20022;-74
2022/10/14 00:38:24;;;;;;;28.00;24.40;;;15.00;91.70;;;;;;5020040;28;20022;-75
2022/10/14 00:40:50;;;;;;;28.52;24.38;;;15.00;91.70;;;;;;5025139;28;20481;-74
2022/10/14 00:43:16;;;;;;;29.60;25.08;;;15.00;91.70;;;;;;5025535;28;20037;-74
2022/10/14 00:45:41;;;;;;;28.83;25.10;;;15.00;91.70;;;;;;5020255;28;20040;-74
2022/10/14 00:48:08;;;;;;;26.60;23.00;;;15.00;91.70;;;;;;5006654;28;20025;-74
2022/10/14 00:50:35;;;;;;;28.63;23.63;;;15.00;91.60;;;;;;5008923;28;20025;-75
2022/10/14 00:53:02;;;;;;;28.13;24.42;;;15.00;91.60;;;;;;5025075;28;20471;-75
2022/10/14 00:55:28;;;;;;;30.08;24.08;;;15.00;91.60;;;;;;5007151;28;20025;-76
2022/10/14 00:57:54;;;;;;;26.23;23.23;;;15.00;91.60;;;;;;5025628;28;20124;-75
2022/10/14 01:00:21;;;;;;;28.70;22.90;;;15.00;91.60;;;;;;5022538;28;20444;-75
2022/10/14 01:02:47;;;;;;;26.42;23.05;;;15.00;91.60;;;;;;5025197;28;20048;-74
2022/10/14 01:05:15;;;;;;;27.98;23.95;;;15.10;91.60;;;;;;5019558;28;20038;-74
2022/10/14 01:08:05;;;;;;;28.92;24.50;;;15.00;91.60;;;;;;5024835;28;20108;-75
2022/10/14 01:10:35;;;;;;;30.80;23.73;;;15.00;91.60;;;;;;5023288;28;20267;-75
2022/10/14 01:13:14;;;;;;;31.02;24.02;;;15.00;91.60;;;;;;5024687;28;20029;-75
2022/10/14 01:15:56;;;;;;;29.00;24.10;;;15.00;91.70;;;;;;5011809;28;20517;-75
2022/10/14 01:18:36;;;;;;;29.42;24.38;;;15.00;91.70;;;;;;5003283;28;20050;-75
2022/10/14 01:21:07;;;;;;;27.58;23.73;;;15.00;91.70;;;;;;5000726;28;20046;-75
2022/10/14 01:23:51;;;;;;;31.88;25.90;;;15.00;91.80;;;;;;5003763;28;20029;-75
2022/10/14 01:26:59;;;;;;;30.95;27.17;;;15.00;91.80;;;;;;5004039;28;20026;-75
2022/10/14 01:29:52;;;;;;;30.48;25.40;;;15.00;91.80;;;;;;4972995;28;20053;-75
2022/10/14 01:32:46;;;;;;;31.45;25.98;;;15.00;91.90;;;;;;5002384;28;20034;-75
2022/10/14 01:35:23;;;;;;;35.22;27.63;;;15.00;91.90;;;;;;4994916;28;20046;-75
2022/10/14 01:37:59;;;;;;;32.97;27.92;;;15.00;92.00;;;;;;5003290;28;20492;-75
2022/10/14 01:40:33;;;;;;;34.78;29.02;;;15.00;92.00;;;;;;5004370;28;20089;-75
2022/10/14 01:43:01;;;;;;;32.08;27.40;;;15.00;92.00;;;;;;5004343;28;20052;-75
2022/10/14 01:45:30;;;;;;;34.33;28.15;;;15.00;92.00;;;;;;5004017;28;20466;-75
2022/10/14 01:47:57;;;;;;;34.13;28.70;;;15.00;92.00;;;;;;5004908;28;20033;-75
2022/10/14 01:50:25;;;;;;;32.72;27.90;;;15.00;92.00;;;;;;5002860;28;20060;-73
2022/10/14 01:53:00;;;;;;;37.03;29.15;;;15.00;92.10;;;;;;5005007;28;20040;-73
2022/10/14 01:55:31;;;;;;;39.03;30.20;;;15.00;92.10;;;;;;5001926;28;20075;-74
2022/10/14 01:57:59;;;;;;;41.33;29.58;;;15.00;92.20;;;;;;4995284;28;20027;-74
2022/10/14 02:00:24;;;;;;;37.63;29.63;;;14.90;92.20;;;;;;5002899;28;20038;-75
2022/10/14 02:02:50;;;;;;;34.80;28.10;;;15.00;92.30;;;;;;5002702;28;20500;-74
2022/10/14 02:05:47;;;;;;;37.15;28.85;;;14.90;92.30;;;;;;5000371;28;20038;-74
2022/10/14 02:08:25;;;;;;;40.97;30.10;;;15.00;92.30;;;;;;5000592;28;20065;-74
2022/10/14 02:11:08;;;;;;;41.22;29.23;;;14.90;92.30;;;;;;4999181;28;20058;-74
2022/10/14 02:13:59;;;;;;;37.75;29.88;;;15.00;92.40;;;;;;5001704;28;20441;-74
2022/10/14 02:16:54;;;;;;;38.67;29.92;;;14.90;92.40;;;;;;5023065;28;20129;-74
2022/10/14 02:19:45;;;;;;;38.25;28.80;;;15.00;92.50;;;;;;5017815;28;20127;-74
2022/10/14 02:22:21;;;;;;;39.25;29.88;;;15.00;92.50;;;;;;5023142;28;20034;-75
2022/10/14 02:24:51;;;;;;;39.85;30.20;;;14.90;92.50;;;;;;5003052;28;20033;-74
2022/10/14 02:27:19;;;;;;;39.97;30.60;;;15.00;92.50;;;;;;5000977;28;20407;-74
2022/10/14 02:29:46;;;;;;;39.58;30.98;;;15.00;92.50;;;;;;5016124;28;20041;-74
2022/10/14 02:32:15;;;;;;;40.00;29.60;;;14.90;92.40;;;;;;5021187;28;20053;-74
2022/10/14 02:34:45;;;;;;;42.80;32.33;;;14.90;92.50;;;;;;5017028;28;20132;-74
2022/10/14 02:37:13;;;;;;;39.80;30.52;;;15.00;92.50;;;;;;5020276;28;20125;-74
2022/10/14 02:39:45;;;;;;;38.47;29.88;;;15.00;92.50;;;;;;5022762;28;20032;-74
2022/10/14 02:42:10;;;;;;;42.78;33.13;;;14.90;92.50;;;;;;5017409;28;20483;-74
2022/10/14 02:44:36;;;;;;;42.55;30.98;;;15.00;92.50;;;;;;5004319;28;20436;-73
2022/10/14 02:47:02;;;;;;;42.13;31.00;;;14.90;92.50;;;;;;5021164;28;20037;-73
2022/10/14 02:49:27;;;;;;;40.67;30.83;;;14.90;92.60;;;;;;5022836;28;20033;-73
2022/10/14 02:51:53;;;;;;;37.90;30.33;;;14.90;92.60;;;;;;5026922;28;20375;-74
2022/10/14 02:54:19;;;;;;;40.35;30.30;;;15.00;92.50;;;;;;5009878;28;20021;-74
2022/10/14 02:56:44;;;;;;;40.72;30.88;;;15.00;92.50;;;;;;5008643;28;20029;-73
2022/10/14 02:59:10;;;;;;;41.47;31.17;;;15.00;92.60;;;;;;5002850;28;20140;-74
2022/10/14 03:01:36;;;;;;;42.15;31.55;;;15.00;92.50;;;;;;5027464;28;20026;-74
2022/10/14 03:04:01;;;;;;;42.58;31.02;;;15.00;92.50;;;;;;5022405;28;20030;-74
2022/10/14 03:06:27;;;;;;;43.42;32.42;;;15.00;92.60;;;;;;5028210;28;20403;-74
2022/10/14 03:08:53;;;;;;;43.33;32.10;;;15.00;92.50;;;;;;5026991;28;20029;-74
2022/10/14 03:11:18;;;;;;;41.97;30.42;;;15.00;92.50;;;;;;5008287;28;20041;-74
2022/10/14 03:13:44;;;;;;;42.45;32.05;;;15.00;92.50;;;;;;5026390;28;20106;-73
2022/10/14 03:16:10;;;;;;;47.67;32.67;;;15.00;92.50;;;;;;5026189;28;20049;-74
2022/10/14 03:18:35;;;;;;;44.55;31.55;;;15.00;92.50;;;;;;5006627;28;20048;-74
2022/10/14 03:21:01;;;;;;;46.35;33.00;;;14.90;92.60;;;;;;5025517;28;20045;-74
2022/10/14 03:23:26;;;;;;;50.00;34.58;;;14.90;92.60;;;;;;5025200;28;20441;-74
2022/10/14 03:25:52;;;;;;;47.83;33.25;;;15.00;92.60;;;;;;5026017;28;20029;-74
2022/10/14 03:28:18;;;;;;;53.65;34.40;;;15.00;92.60;;;;;;5025254;28;20108;-74
2022/10/14 03:30:43;;;;;;;47.45;32.80;;;15.00;92.60;;;;;;5024998;28;20075;-74
2022/10/14 03:33:09;;;;;;;49.08;33.58;;;15.00;92.70;;;;;;5007520;28;20049;-74
2022/10/14 03:35:34;;;;;;;45.95;32.95;;;15.00;92.60;;;;;;5025710;28;20026;-73
2022/10/14 03:38:02;;;;;;;47.25;32.35;;;15.00;92.70;;;;;;5025666;28;20064;-73
2022/10/14 03:40:28;;;;;;;43.88;32.35;;;15.00;92.70;;;;;;5025896;28;20513;-74
2022/10/14 03:42:58;;;;;;;45.65;31.23;;;15.00;92.60;;;;;;5033677;28;20341;-76
2022/10/14 03:45:23;;;;;;;49.35;33.15;;;15.00;92.60;;;;;;5030198;28;20025;-75
2022/10/14 03:47:49;;;;;;;46.22;32.95;;;15.00;92.60;;;;;;5024677;28;20504;-74
2022/10/14 03:50:15;;;;;;;45.72;32.08;;;15.00;92.70;;;;;;5022847;28;20033;-74
2022/10/14 03:52:41;;;;;;;50.00;32.63;;;15.00;92.60;;;;;;5026340;28;20029;-73
2022/10/14 03:55:08;;;;;;;52.90;33.53;;;15.00;92.60;;;;;;5023528;28;20037;-75
2022/10/14 03:57:34;;;;;;;47.97;32.42;;;15.00;92.60;;;;;;5026584;28;20067;-73
2022/10/14 03:59:59;;;;;;;47.30;32.00;;;15.00;92.70;;;;;;5020815;28;20120;-73
2022/10/14 04:02:25;;;;;;;54.92;33.47;;;15.00;92.80;;;;;;5025249;28;20039;-75
2022/10/14 04:04:51;;;;;;;50.80;34.05;;;15.00;92.70;;;;;;5019535;28;20045;-74
2022/10/14 04:07:16;;;;;;;54.13;35.75;;;15.00;92.80;;;;;;5021710;28;20052;-74
2022/10/14 04:09:42;;;;;;;52.95;34.65;;;15.00;92.80;;;;;;5025034;28;20029;-74
2022/10/14 04:12:08;;;;;;;50.60;33.17;;;15.00;92.90;;;;;;5025172;28;20076;-74
2022/10/14 04:14:34;;;;;;;57.95;36.38;;;15.00;92.90;;;;;;5026190;28;20294;-74
2022/10/14 04:16:59;;;;;;;53.30;34.65;;;15.00;92.90;;;;;;5018973;28;20501;-73
2022/10/14 04:19:25;;;;;;;58.63;35.20;;;15.00;92.90;;;;;;5024276;28;20435;-75
2022/10/14 04:21:51;;;;;;;54.65;34.78;;;15.00;93.00;;;;;;5023930;28;20041;-74
2022/10/14 04:24:16;;;;;;;57.35;35.25;;;15.00;93.00;;;;;;5016246;28;20491;-75
2022/10/14 04:26:42;;;;;;;62.05;37.55;;;15.00;93.00;;;;;;5013629;28;20033;-74
2022/10/14 04:29:08;;;;;;;64.05;37.13;;;15.00;93.00;;;;;;5011707;28;20049;-73
2022/10/14 04:31:33;;;;;;;63.05;37.83;;;15.00;93.00;;;;;;5012356;28;20022;-73
2022/10/14 04:33:59;;;;;;;59.72;36.58;;;15.00;93.00;;;;;;5013860;28;20111;-74
2022/10/14 04:36:25;;;;;;;59.95;35.72;;;15.00;93.00;;;;;;5011984;28;20122;-74
2022/10/14 04:38:50;;;;;;;61.53;37.25;;;15.00;93.00;;;;;;5014165;28;20428;-75
2022/10/14 04:41:16;;;;;;;59.85;35.78;;;15.00;93.00;;;;;;5009814;28;20814;-74
2022/10/14 04:43:42;;;;;;;59.38;35.53;;;15.00;93.00;;;;;;5012273;28;20060;-73
2022/10/14 04:46:07;;;;;;;63.08;36.88;;;15.00;93.00;;;;;;5014697;28;20243;-73
2022/10/14 04:48:33;;;;;;;68.53;36.33;;;15.00;93.00;;;;;;5012738;28;20117;-74
2022/10/14 04:50:59;;;;;;;62.80;36.25;;;14.90;93.10;;;;;;5012711;28;20072;-74
2022/10/14 04:53:24;;;;;;;63.35;37.40;;;15.00;93.10;;;;;;5019842;28;20458;-74
2022/10/14 04:55:50;;;;;;;70.95;38.67;;;15.00;93.10;;;;;;5021949;28;20056;-74
2022/10/14 04:58:16;;;;;;;63.78;35.72;;;14.90;93.10;;;;;;5017713;28;20042;-75
2022/10/14 05:00:42;;;;;;;62.28;35.75;;;14.90;93.20;;;;;;5030066;28;20073;-74
2022/10/14 05:03:07;;;;;;;62.30;36.00;;;14.90;93.20;;;;;;5028541;28;20104;-74
2022/10/14 05:05:33;;;;;;;59.47;35.55;;;14.90;93.20;;;;;;5016189;28;20029;-73
2022/10/14 05:07:59;;;;;;;51.70;32.53;;;14.90;93.30;;;;;;5013739;28;20038;-72
2022/10/14 05:10:24;;;;;;;52.42;32.42;;;14.90;93.30;;;;;;5010645;28;20037;-73
2022/10/14 05:12:50;;;;;;;50.70;31.90;;;14.90;93.20;;;;;;5011863;28;20042;-73
2022/10/14 05:15:16;;;;;;;49.15;28.95;;;15.00;93.20;;;;;;5008721;28;20049;-74
2022/10/14 05:17:43;;;;;;;39.50;26.35;;;15.00;93.10;;;;;;5009814;28;20101;-75
2022/10/14 05:20:09;;;;;;;34.97;24.25;;;15.00;93.10;;;;;;4997836;28;20041;-72
2022/10/14 05:22:35;;;;;;;34.45;23.73;;;15.00;93.10;;;;;;5010304;28;20600;-74
2022/10/14 05:25:01;;;;;;;34.58;23.38;;;14.90;93.10;;;;;;5011215;28;21959;-73
2022/10/14 05:27:26;;;;;;;31.05;21.25;;;14.90;93.10;;;;;;5006358;28;20441;-72
2022/10/14 05:29:52;;;;;;;32.47;22.55;;;14.90;93.20;;;;;;5020368;28;20056;-74
2022/10/14 05:32:18;;;;;;;31.25;21.77;;;14.90;93.20;;;;;;5003607;28;20468;-75
2022/10/14 05:34:43;;;;;;;32.88;22.55;;;14.90;93.20;;;;;;5020574;28;20033;-74
2022/10/14 05:37:09;;;;;;;32.22;22.15;;;14.90;93.20;;;;;;5019751;28;20087;-74
2022/10/14 05:39:35;;;;;;;31.20;22.48;;;14.90;93.20;;;;;;5018447;28;20404;-74
2022/10/14 05:42:00;;;;;;;32.53;22.83;;;14.90;93.20;;;;;;5024576;28;20064;-74
2022/10/14 05:44:26;;;;;;;28.60;21.55;;;14.90;93.20;;;;;;5020350;28;20095;-73
2022/10/14 05:46:51;;;;;;;26.58;20.83;;;14.90;93.20;;;;;;4999846;28;20041;-75
2022/10/14 05:49:17;;;;;;;28.98;21.42;;;14.90;93.20;;;;;;5010048;28;20477;-74
2022/10/14 05:51:43;;;;;;;27.77;20.45;;;14.90;93.30;;;;;;5011122;28;20033;-74
2022/10/14 05:54:09;;;;;;;29.92;21.30;;;14.80;93.30;;;;;;5013222;28;20040;-74
2022/10/14 05:56:35;;;;;;;26.58;20.48;;;14.80;93.30;;;;;;5018975;28;20026;-75
2022/10/14 05:59:01;;;;;;;29.15;19.77;;;14.90;93.30;;;;;;5020875;28;20103;-74
2022/10/14 06:01:26;;;;;;;28.08;21.10;;;14.90;93.30;;;;;;5013029;28;20076;-74
2022/10/14 06:03:52;;;;;;;26.90;20.98;;;14.80;93.30;;;;;;5015262;28;20029;-74
2022/10/14 06:06:18;;;;;;;28.35;20.90;;;14.90;93.40;;;;;;5011788;28;20030;-74
2022/10/14 06:08:44;;;;;;;28.85;21.27;;;14.80;93.40;;;;;;5022199;28;20029;-74
2022/10/14 06:11:11;;;;;;;29.15;21.15;;;14.90;93.40;;;;;;5021674;28;20033;-75
2022/10/14 06:13:37;;;;;;;30.92;21.40;;;14.90;93.40;;;;;;5018764;28;20041;-74
2022/10/14 06:16:08;;;;;;;27.80;20.17;;;14.90;93.40;;;;;;5023018;28;20533;-75
2022/10/14 06:18:34;;;;;;;31.35;22.40;;;14.90;93.40;;;;;;5020192;28;20124;-74
2022/10/14 06:21:00;;;;;;;32.65;23.40;;;14.90;93.40;;;;;;5023164;28;20041;-74
2022/10/14 06:23:26;;;;;;;33.85;25.27;;;14.90;93.40;;;;;;5018124;28;20061;-73
2022/10/14 06:25:52;;;;;;;30.85;22.90;;;14.90;93.40;;;;;;5022902;28;20033;-74
2022/10/14 06:28:18;;;;;;;34.55;23.95;;;15.00;93.40;;;;;;5021677;28;20434;-74
2022/10/14 06:30:50;;;;;;;32.20;23.48;;;14.90;93.30;;;;;;5014407;28;20021;-73
2022/10/14 06:33:16;;;;;;;33.90;23.17;;;14.90;93.30;;;;;;5007999;28;20121;-73
2022/10/14 06:35:42;;;;;;;32.78;22.40;;;15.00;93.30;;;;;;5015256;28;20424;-74
2022/10/14 06:38:07;;;;;;;34.08;24.33;;;15.00;93.30;;;;;;5017606;28;20038;-75
2022/10/14 06:40:33;;;;;;;32.03;22.73;;;15.00;93.40;;;;;;5013665;28;20493;-73
2022/10/14 06:42:59;;;;;;;29.35;22.33;;;15.00;93.40;;;;;;5019918;28;20095;-73
2022/10/14 06:45:24;;;;;;;30.40;21.90;;;15.00;93.30;;;;;;5020619;28;20511;-74
2022/10/14 06:47:50;;;;;;;29.20;22.35;;;14.90;93.30;;;;;;5020250;28;20041;-74
2022/10/14 06:50:16;;;;;;;33.40;22.80;;;15.00;93.40;;;;;;5014868;28;20037;-75
2022/10/14 06:52:44;;;;;;;31.88;22.40;;;15.00;93.40;;;;;;5016104;28;20110;-74
2022/10/14 06:55:10;;;;;;;28.85;21.10;;;15.00;93.40;;;;;;5011958;28;20034;-75
2022/10/14 06:57:35;;;;;;;28.15;20.45;;;15.00;93.40;;;;;;5024353;28;20453;-73
2022/10/14 07:00:02;;;;;;;29.00;21.20;;;15.00;93.40;;;;;;5021697;28;20037;-74
2022/10/14 07:02:28;;;;;;;27.13;19.98;;;15.00;93.40;;;;;;5025811;28;20049;-73
2022/10/14 07:04:53;;;;;;;26.08;19.98;;;15.00;93.40;;;;;;5024907;28;20053;-74
2022/10/14 07:07:19;;;;;;;25.35;19.45;;;15.00;93.40;;;;;;5020774;28;20038;-77
2022/10/14 07:09:45;;;;;;;25.98;19.85;;;15.00;93.40;;;;;;5016715;28;20022;-74
2022/10/14 07:12:10;;;;;;;26.70;18.73;;;15.00;93.40;;;;;;5024508;28;20033;-75
2022/10/14 07:14:36;;;;;;;23.92;17.67;;;15.10;93.40;;;;;;5026216;28;20054;-73
2022/10/14 07:17:02;;;;;;;22.48;17.42;;;15.10;93.40;;;;;;5024285;28;20367;-73
2022/10/14 07:19:27;;;;;;;20.50;16.60;;;15.10;93.40;;;;;;5016371;28;20052;-75
2022/10/14 07:21:53;;;;;;;21.48;16.65;;;15.10;93.30;;;;;;5014330;28;20030;-75
2022/10/14 07:24:19;;;;;;;19.63;15.57;;;15.10;93.30;;;;;;5012984;28;20037;-74
2022/10/14 07:26:44;;;;;;;20.02;16.13;;;15.10;93.30;;;;;;5013699;28;20419;-74
2022/10/14 07:29:10;;;;;;;21.20;16.02;;;15.10;93.30;;;;;;5005699;28;20033;-74
2022/10/14 07:31:36;;;;;;;20.45;15.30;;;15.10;93.30;;;;;;5021549;28;20477;-74
2022/10/14 07:34:01;;;;;;;19.50;15.13;;;15.20;93.30;;;;;;5023530;28;20140;-73
2022/10/14 07:36:27;;;;;;;16.98;14.45;;;15.10;93.20;;;;;;5025514;28;20272;-74
2022/10/14 07:38:53;;;;;;;17.92;15.35;;;15.10;93.30;;;;;;5009053;28;20038;-74
2022/10/14 07:41:23;;;;;;;20.33;15.63;;;15.20;93.30;;;;;;5027866;28;20487;-74
2022/10/14 07:43:54;;;;;;;18.67;15.23;;;15.20;93.30;;;;;;5007661;28;20388;-74
2022/10/14 07:46:30;;;;;;;17.40;14.75;;;15.20;93.20;;;;;;5024356;28;20052;-73
2022/10/14 07:49:01;;;;;;;18.20;14.85;;;15.20;93.20;;;;;;5017157;28;20087;-75
2022/10/14 07:51:28;;;;;;;18.50;14.57;;;15.20;93.20;;;;;;5024542;28;20038;-74
2022/10/14 07:53:55;;;;;;;17.13;13.77;;;15.30;93.20;;;;;;5021353;28;20064;-75
2022/10/14 07:56:21;;;;;;;17.63;14.15;;;15.30;93.10;;;;;;5024019;28;20390;-75
2022/10/14 07:58:47;;;;;;;15.57;13.48;;;15.30;93.10;;;;;;5022793;28;20040;-75
2022/10/14 08:01:14;;;;;;;18.17;15.30;;;15.40;93.00;;;;;;5023669;28;20409;-75
2022/10/14 08:03:41;;;;;;;18.25;16.35;;;15.40;93.00;;;;;;5026104;28;20464;-76
2022/10/14 08:06:08;;;;;;;19.67;17.52;;;15.40;92.90;;;;;;5024241;28;20037;-75
2022/10/14 08:08:34;;;;;;;17.85;14.38;;;15.40;92.90;;;;;;5015799;28;20037;-75
2022/10/14 08:11:16;;;;;;;16.48;13.93;;;15.40;93.00;;;;;;5025618;28;20049;-77
2022/10/14 08:13:43;;;;;;;18.50;16.40;;;15.40;92.90;;;;;;5015233;28;20030;-75
2022/10/14 08:16:29;;;;;;;17.40;14.68;;;15.40;93.00;;;;;;5021707;28;20042;-76
2022/10/14 08:18:57;;;;;;;15.93;13.73;;;15.50;93.00;;;;;;5024056;28;20109;-76
2022/10/14 08:21:24;;;;;;;16.33;13.32;;;15.50;93.00;;;;;;5023777;28;20034;-77
2022/10/14 08:23:50;;;;;;;15.95;13.73;;;15.50;93.00;;;;;;5024626;28;20479;-79
2022/10/14 08:26:26;;;;;;;17.25;13.13;;;15.50;92.80;;;;;;5024902;28;20036;-76
2022/10/14 08:28:52;;;;;;;14.98;12.32;;;15.60;92.90;;;;;;5019312;28;20507;-77
2022/10/14 08:31:18;;;;;;;15.15;12.45;;;15.60;92.70;;;;;;5023521;28;20034;-77
2022/10/14 08:33:44;;;;;;;15.05;12.60;;;15.60;92.80;;;;;;5022830;28;20175;-76
2022/10/14 08:36:11;;;;;;;14.90;12.35;;;15.60;92.70;;;;;;5019309;28;20218;-75
2022/10/14 08:38:37;;;;;;;14.75;12.13;;;15.60;92.80;;;;;;5022121;28;20025;-76
2022/10/14 08:41:12;;;;;;;14.50;12.05;;;15.60;92.70;;;;;;5019509;28;20544;-75
2022/10/14 08:44:02;;;;;;;15.65;11.98;;;15.60;92.80;;;;;;5021945;28;20034;-75
2022/10/14 08:46:37;;;;;;;15.40;12.60;;;15.60;92.80;;;;;;5007705;28;20029;-76
2022/10/14 08:49:26;;;;;;;;;;;15.60;92.70;;;;;;5020315;28;20038;-76
2022/10/14 08:52:13;;;;;;;17.38;13.20;;;15.60;92.80;;;;;;4996260;28;19920;-77
2022/10/14 08:54:46;;;;;;;17.83;13.43;;;15.70;92.80;;;;;;5023270;28;20026;-76
2022/10/14 08:57:25;;;;;;;17.30;14.35;;;16.00;92.90;;;;;;5005829;28;20038;-75
2022/10/14 08:59:51;;;;;;;18.40;14.32;;;16.00;92.50;;;;;;5023619;28;20026;-77
2022/10/14 09:02:46;;;;;;;17.10;14.05;;;16.10;92.50;;;;;;5017723;28;20496;-79
2022/10/14 09:05:30;;;;;;;17.70;14.25;;;16.20;92.30;;;;;;5016084;28;20026;-76
2022/10/14 09:07:57;;;;;;;18.15;15.23;;;16.40;92.30;;;;;;5015481;28;20036;-76
2022/10/14 09:10:30;;;;;;;17.35;15.18;;;16.40;91.90;;;;;;5015071;28;20108;-76
2022/10/14 09:13:01;;;;;;;20.40;15.60;;;16.40;91.60;;;;;;5001306;28;20316;-75
2022/10/14 09:15:35;;;;;;;20.42;16.38;;;16.50;91.60;;;;;;5013869;28;20038;-75
2022/10/14 09:18:23;;;;;;;20.55;17.45;;;16.50;91.50;;;;;;5013581;28;20045;-76
2022/10/14 09:20:50;;;;;;;19.17;16.58;;;16.60;91.40;;;;;;5015187;28;20061;-75
2022/10/14 09:23:22;;;;;;;20.65;17.55;;;16.60;91.30;;;;;;5002589;28;20377;-76
2022/10/14 09:26:12;;;;;;;23.67;17.30;;;16.60;91.10;;;;;;5015664;28;20080;-74
2022/10/14 09:28:42;;;;;;;22.52;17.45;;;16.60;91.10;;;;;;5005833;28;20069;-74
2022/10/14 09:31:11;;;;;;;22.15;17.60;;;16.60;91.10;;;;;;5013093;28;20067;-75
2022/10/14 09:33:39;;;;;;;21.60;18.38;;;16.60;91.00;;;;;;5014959;28;20037;-75
2022/10/14 09:36:15;;;;;;;22.33;18.60;;;16.60;91.00;;;;;;5016792;28;21383;-74
2022/10/14 09:38:42;;;;;;;23.33;18.05;;;16.70;90.80;;;;;;5013253;28;20056;-74
2022/10/14 09:41:11;;;;;;;23.40;18.92;;;16.70;90.80;;;;;;5015309;28;20126;-76
2022/10/14 09:43:37;;;;;;;20.98;18.40;;;16.70;90.60;;;;;;5012136;28;20053;-75
2022/10/14 09:46:07;;;;;;;23.52;18.75;;;16.70;90.50;;;;;;5016153;28;20452;-74
2022/10/14 09:48:43;;;;;;;22.70;17.58;;;16.80;90.40;;;;;;5019589;28;20041;-75
2022/10/14 09:51:19;;;;;;;24.63;20.02;;;16.80;90.30;;;;;;5015057;28;20540;-74
2022/10/14 09:53:51;;;;;;;23.77;19.05;;;16.70;90.20;;;;;;5022468;28;20470;-74
2022/10/14 09:56:30;;;;;;;25.05;20.60;;;17.00;90.30;;;;;;5016812;28;20631;-75
2022/10/14 09:58:57;;;;;;;24.17;20.35;;;17.10;90.00;;;;;;5013963;28;20030;-76
2022/10/14 10:01:26;;;;;;;25.42;19.30;;;17.20;89.60;;;;;;5015652;28;20080;-77
2022/10/14 10:03:54;;;;;;;22.10;18.58;;;17.30;88.70;;;;;;5014532;28;20041;-75
2022/10/14 10:06:26;;;;;;;22.77;18.90;;;17.40;88.30;;;;;;5015392;28;20053;-75
2022/10/14 10:08:52;;;;;;;23.17;19.50;;;17.30;87.50;;;;;;5008315;28;20060;-75
2022/10/14 10:11:36;;;;;;;23.38;19.08;;;17.30;87.50;;;;;;5014586;28;20033;-76
2022/10/14 10:14:32;;;;;;;25.08;19.73;;;17.30;87.60;;;;;;5015402;28;20469;-76
2022/10/14 10:17:07;;;;;;;26.55;21.50;;;17.40;87.50;;;;;;5006714;28;20094;-77
2022/10/14 10:19:43;;;;;;;25.30;20.67;;;17.40;87.30;;;;;;5014708;28;20210;-77
2022/10/14 10:22:16;;;;;;;25.35;22.48;;;17.50;87.40;;;;;;5009809;28;20046;-78
2022/10/14 10:24:43;;;;;;;24.75;22.02;;;17.60;86.30;;;;;;5022404;28;20119;-78
2022/10/14 10:27:37;;;;;;;23.02;19.90;;;17.80;86.30;;;;;;5022454;28;20030;-75
2022/10/14 10:30:20;;;;;;;27.27;22.20;;;18.00;85.90;;;;;;5012635;28;20034;-76
2022/10/14 10:33:10;;;;;;;24.17;21.42;;;18.10;85.80;;;;;;5016415;28;20032;-75
2022/10/14 10:36:04;;;;;;;25.65;22.52;;;18.30;84.90;;;;;;4994766;28;20061;-76
2022/10/14 10:38:44;;;;;;;28.50;23.30;;;18.20;83.70;;;;;;5009628;28;20032;-75
2022/10/14 10:41:40;;;;;;;25.98;22.70;;;18.10;84.00;;;;;;4993628;28;20060;-75
2022/10/14 10:44:25;;;;;;;27.08;23.27;;;18.20;83.80;;;;;;5007553;28;20050;-75
2022/10/14 10:47:21;;;;;;;26.75;23.85;;;18.50;83.30;;;;;;5011837;28;20947;-77
2022/10/14 10:49:55;;;;;;;32.13;27.77;;;18.60;82.50;;;;;;5010957;28;20125;-77
2022/10/14 10:52:55;;;;;;;31.83;27.45;;;18.60;81.30;;;;;;5009662;28;20057;-76
2022/10/14 10:55:36;;;;;;;30.73;27.23;;;18.50;80.70;;;;;;4976176;28;20058;-76
2022/10/14 10:58:26;;;;;;;34.35;28.13;;;18.50;80.70;;;;;;5009592;28;20045;-77
2022/10/14 11:01:20;;;;;;;28.65;25.48;;;18.50;80.70;;;;;;5009300;28;20497;-76
2022/10/14 11:04:19;;;;;;;29.38;26.20;;;18.60;80.90;;;;;;5008088;28;20164;-76
2022/10/14 11:13:54;;;;;;;28.08;25.08;;;19.00;79.60;;;;;;5012647;28;20507;-77
2022/10/14 11:16:41;;;;;;;29.90;26.65;;;19.10;78.20;;;;;;5014685;28;20132;-76
2022/10/14 11:19:28;;;;;;;28.67;25.77;;;19.10;78.50;;;;;;5013836;28;20473;-77
2022/10/14 11:22:27;;;;;;;28.80;25.80;;;19.20;78.50;;;;;;5012226;28;20359;-76
2022/10/14 11:25:02;;;;;;;28.52;25.52;;;19.40;77.20;;;;;;4986053;28;20149;-76
2022/10/14 11:27:42;;;;;;;25.15;22.50;;;19.40;77.50;;;;;;5012771;28;20029;-76
2022/10/14 11:30:22;;;;;;;22.13;19.83;;;19.50;76.40;;;;;;4997041;28;20069;-75
2022/10/14 11:33:08;;;;;;;22.83;20.52;;;19.30;74.20;;;;;;5012249;28;20063;-75
2022/10/14 11:35:57;;;;;;;23.35;20.95;;;19.30;73.80;;;;;;5015621;28;20048;-75
2022/10/14 11:38:56;;;;;;;22.92;20.55;;;19.30;73.90;;;;;;5018375;28;20034;-76
2022/10/14 11:41:44;;;;;;;24.85;22.17;;;19.40;73.80;;;;;;5014697;28;20066;-75
2022/10/14 11:44:31;;;;;;;23.85;21.45;;;19.60;74.40;;;;;;5013237;28;20041;-76
2022/10/14 11:47:01;;;;;;;22.75;20.45;;;20.00;73.60;;;;;;4998440;28;20030;-76
2022/10/14 11:49:30;;;;;;;18.70;16.73;;;20.30;72.50;;;;;;5000844;28;20489;-74
2022/10/14 11:52:10;;;;;;;18.60;16.70;;;19.80;69.60;;;;;;5013446;28;20041;-75
2022/10/14 11:54:42;;;;;;;19.50;17.60;;;19.60;70.80;;;;;;4994289;28;20125;-76
2022/10/14 11:57:28;;;;;;;20.75;18.65;;;19.50;71.10;;;;;;5013047;28;20030;-75
2022/10/14 12:00:00;;;;;;;21.73;19.55;;;19.50;71.00;;;;;;5023955;28;20353;-77
2022/10/14 12:02:55;;;;;;;20.48;18.48;;;19.50;70.30;;;;;;5026735;28;20033;-76
2022/10/14 12:05:21;;;;;;;19.98;17.98;;;19.50;71.70;;;;;;5023504;28;20418;-76
2022/10/14 12:08:09;;;;;;;19.67;17.73;;;19.50;72.50;;;;;;5026797;28;20179;-75
2022/10/14 12:10:43;;;;;;;17.80;16.10;;;19.50;72.40;;;;;;4997890;28;20033;-74
2022/10/14 12:13:18;;;;;;;16.70;15.02;;;19.50;71.00;;;;;;5020364;28;20061;-74
2022/10/14 12:15:49;;;;;;;16.98;15.18;;;19.40;70.70;;;;;;5020861;28;20037;-75
2022/10/14 12:18:15;;;;;;;17.13;15.32;;;19.30;71.00;;;;;;5022875;28;20038;-75
2022/10/14 12:20:48;;;;;;;16.35;14.65;;;19.10;71.30;;;;;;5022155;28;20059;-76
2022/10/14 12:23:37;;;;;;;14.90;13.40;;;19.30;71.70;;;;;;5025556;28;20038;-75
2022/10/14 12:26:12;;;;;;;14.55;12.73;;;19.30;71.40;;;;;;5024127;28;20034;-75
2022/10/14 12:28:39;;;;;;;12.93;11.60;;;19.10;70.70;;;;;;5026036;28;20091;-75
2022/10/14 12:31:27;;;;;;;14.20;12.70;;;19.00;70.40;;;;;;5005445;28;20063;-74
2022/10/14 12:34:14;;;;;;;16.38;14.68;;;19.10;71.50;;;;;;5016349;28;20454;-76
2022/10/14 12:36:49;;;;;;;17.25;15.55;;;19.10;71.70;;;;;;5025656;28;20065;-75
2022/10/14 12:39:18;;;;;;;17.70;15.32;;;19.20;70.50;;;;;;5023577;28;20121;-75
2022/10/14 12:42:04;;;;;;;14.27;12.88;;;19.40;70.90;;;;;;5022549;28;20298;-74
2022/10/14 12:44:47;;;;;;;12.80;11.43;;;19.40;70.30;;;;;;5016912;28;20086;-75
2022/10/14 12:47:29;;;;;;;12.05;10.75;;;19.30;70.20;;;;;;5018688;28;20156;-75
2022/10/14 12:50:01;;;;;;;12.00;9.52;;;19.20;70.10;;;;;;5021111;28;20041;-75
2022/10/14 12:52:36;;;;;;;10.65;9.52;;;19.10;69.10;;;;;;5020198;28;20077;-77
2022/10/14 12:55:13;;;;;;;9.90;8.82;;;19.10;69.40;;;;;;5007126;28;20618;-77
2022/10/14 12:57:39;;;;;;;12.20;10.50;;;19.30;69.70;;;;;;5023208;28;20033;-77